sensor_id;sensor_type;location;lat;lon;timestamp;temperature;humidity
11963;DHT22;62678;52.130;5.584;2023-07-13T00:01:52;17.50;99.90
11963;DHT22;62678;52.130;5.584;2023-07-13T00:04:20;17.40;99.90
11963;DHT22;62678;52.130;5.584;2023-07-13T00:06:48;17.30;99.90
11963;DHT22;62678;52.130;5.584;2023-07-13T00:09:18;17.30;99.90
11963;DHT22;62678;52.130;5.584;2023-07-13T00:11:49;17.10;99.90
11963;DHT22;62678;52.130;5.584;2023-07-13T00:14:17;17.10;99.90
11963;DHT22;62678;52.130;5.584;2023-07-13T00:16:44;17.00;99.90
11963;DHT22;62678;52.130;5.584;2023-07-13T00:19:12;17.00;99.90
11963;DHT22;62678;52.130;5.584;2023-07-13T00:21:40;17.00;99.90
11963;DHT22;62678;52.130;5.584;2023-07-13T00:24:09;16.90;99.90
11963;DHT22;62678;52.130;5.584;2023-07-13T00:26:40;16.80;99.90
11963;DHT22;62678;52.130;5.584;2023-07-13T00:29:11;16.70;99.90
11963;DHT22;62678;52.130;5.584;2023-07-13T00:31:39;16.60;99.90
11963;DHT22;62678;52.130;5.584;2023-07-13T00:34:06;16.60;99.90
11963;DHT22;62678;52.130;5.584;2023-07-13T00:36:34;16.50;99.90
11963;DHT22;62678;52.130;5.584;2023-07-13T00:39:01;16.50;99.90
11963;DHT22;62678;52.130;5.584;2023-07-13T00:41:30;16.50;99.90
11963;DHT22;62678;52.130;5.584;2023-07-13T00:43:58;16.40;99.90
11963;DHT22;62678;52.130;5.584;2023-07-13T00:46:27;16.40;99.90
11963;DHT22;62678;52.130;5.584;2023-07-13T00:48:59;16.40;99.90
11963;DHT22;62678;52.130;5.584;2023-07-13T00:51:32;16.40;99.90
11963;DHT22;62678;52.130;5.584;2023-07-13T00:54:05;16.40;99.90
11963;DHT22;62678;52.130;5.584;2023-07-13T00:56:33;16.40;99.90
11963;DHT22;62678;52.130;5.584;2023-07-13T00:59:05;16.40;99.90
11963;DHT22;62678;52.130;5.584;2023-07-13T01:01:33;16.40;99.90
11963;DHT22;62678;52.130;5.584;2023-07-13T01:04:02;16.40;99.90
11963;DHT22;62678;52.130;5.584;2023-07-13T01:06:29;16.40;99.90
11963;DHT22;62678;52.130;5.584;2023-07-13T01:08:58;16.30;99.90
11963;DHT22;62678;52.130;5.584;2023-07-13T01:11:26;16.30;99.90
11963;DHT22;62678;52.130;5.584;2023-07-13T01:13:54;16.20;99.90
11963;DHT22;62678;52.130;5.584;2023-07-13T01:16:26;16.20;99.90
11963;DHT22;62678;52.130;5.584;2023-07-13T01:18:53;16.20;99.90
11963;DHT22;62678;52.130;5.584;2023-07-13T01:21:26;16.10;99.90
11963;DHT22;62678;52.130;5.584;2023-07-13T01:23:53;16.00;99.90
11963;DHT22;62678;52.130;5.584;2023-07-13T01:26:20;16.00;99.90
11963;DHT22;62678;52.130;5.584;2023-07-13T01:28:47;16.00;99.90
11963;DHT22;62678;52.130;5.584;2023-07-13T01:31:15;16.00;99.90
11963;DHT22;62678;52.130;5.584;2023-07-13T01:33:42;16.00;99.90
11963;DHT22;62678;52.130;5.584;2023-07-13T01:36:10;16.00;99.90
11963;DHT22;62678;52.130;5.584;2023-07-13T01:38:39;15.90;99.90
11963;DHT22;62678;52.130;5.584;2023-07-13T01:41:06;15.90;99.90
11963;DHT22;62678;52.130;5.584;2023-07-13T01:43:33;15.90;99.90
11963;DHT22;62678;52.130;5.584;2023-07-13T01:46:01;15.90;99.90
11963;DHT22;62678;52.130;5.584;2023-07-13T01:48:28;15.90;99.90
11963;DHT22;62678;52.130;5.584;2023-07-13T01:50:55;15.90;99.90
11963;DHT22;62678;52.130;5.584;2023-07-13T01:53:22;15.90;99.90
11963;DHT22;62678;52.130;5.584;2023-07-13T01:55:51;15.90;99.90
11963;DHT22;62678;52.130;5.584;2023-07-13T01:58:18;15.80;99.90
11963;DHT22;62678;52.130;5.584;2023-07-13T02:00:48;15.80;99.90
11963;DHT22;62678;52.130;5.584;2023-07-13T02:03:15;15.80;99.90
11963;DHT22;62678;52.130;5.584;2023-07-13T02:05:43;15.80;99.90
11963;DHT22;62678;52.130;5.584;2023-07-13T02:08:11;15.70;99.90
11963;DHT22;62678;52.130;5.584;2023-07-13T02:10:38;15.70;99.90
11963;DHT22;62678;52.130;5.584;2023-07-13T02:13:07;15.70;99.90
11963;DHT22;62678;52.130;5.584;2023-07-13T02:15:37;15.60;99.90
11963;DHT22;62678;52.130;5.584;2023-07-13T02:18:05;15.60;99.90
11963;DHT22;62678;52.130;5.584;2023-07-13T02:20:32;15.60;99.90
11963;DHT22;62678;52.130;5.584;2023-07-13T02:23:00;15.70;99.90
11963;DHT22;62678;52.130;5.584;2023-07-13T02:25:27;15.60;99.90
11963;DHT22;62678;52.130;5.584;2023-07-13T02:27:54;15.60;99.90
11963;DHT22;62678;52.130;5.584;2023-07-13T02:30:22;15.50;99.90
11963;DHT22;62678;52.130;5.584;2023-07-13T02:32:50;15.60;99.90
11963;DHT22;62678;52.130;5.584;2023-07-13T02:35:17;15.60;99.90
11963;DHT22;62678;52.130;5.584;2023-07-13T02:37:44;15.50;99.90
11963;DHT22;62678;52.130;5.584;2023-07-13T02:40:12;15.50;99.90
11963;DHT22;62678;52.130;5.584;2023-07-13T02:42:39;15.40;99.90
11963;DHT22;62678;52.130;5.584;2023-07-13T02:45:07;15.50;99.90
11963;DHT22;62678;52.130;5.584;2023-07-13T02:47:36;15.50;99.90
11963;DHT22;62678;52.130;5.584;2023-07-13T02:50:04;15.50;99.90
11963;DHT22;62678;52.130;5.584;2023-07-13T02:52:32;15.50;99.90
11963;DHT22;62678;52.130;5.584;2023-07-13T02:54:59;15.40;99.90
11963;DHT22;62678;52.130;5.584;2023-07-13T02:57:26;15.50;99.90
11963;DHT22;62678;52.130;5.584;2023-07-13T02:59:54;15.50;99.90
11963;DHT22;62678;52.130;5.584;2023-07-13T03:02:21;15.50;99.90
11963;DHT22;62678;52.130;5.584;2023-07-13T03:04:49;15.50;99.90
11963;DHT22;62678;52.130;5.584;2023-07-13T03:07:17;15.60;99.90
11963;DHT22;62678;52.130;5.584;2023-07-13T03:09:44;15.50;99.90
11963;DHT22;62678;52.130;5.584;2023-07-13T03:12:11;15.50;99.90
11963;DHT22;62678;52.130;5.584;2023-07-13T03:14:38;15.40;99.90
11963;DHT22;62678;52.130;5.584;2023-07-13T03:17:05;15.50;99.90
11963;DHT22;62678;52.130;5.584;2023-07-13T03:19:32;15.40;99.90
11963;DHT22;62678;52.130;5.584;2023-07-13T03:22:01;15.40;99.90
11963;DHT22;62678;52.130;5.584;2023-07-13T03:24:28;15.50;99.90
11963;DHT22;62678;52.130;5.584;2023-07-13T03:26:55;15.50;99.90
11963;DHT22;62678;52.130;5.584;2023-07-13T03:29:22;15.50;99.90
11963;DHT22;62678;52.130;5.584;2023-07-13T03:31:49;15.40;99.90
11963;DHT22;62678;52.130;5.584;2023-07-13T03:34:16;15.40;99.90
11963;DHT22;62678;52.130;5.584;2023-07-13T03:36:44;15.40;99.90
11963;DHT22;62678;52.130;5.584;2023-07-13T03:39:13;15.40;99.90
11963;DHT22;62678;52.130;5.584;2023-07-13T03:41:40;15.40;99.90
11963;DHT22;62678;52.130;5.584;2023-07-13T03:44:07;15.40;99.90
11963;DHT22;62678;52.130;5.584;2023-07-13T03:46:34;15.50;99.90
11963;DHT22;62678;52.130;5.584;2023-07-13T03:49:01;15.50;99.90
11963;DHT22;62678;52.130;5.584;2023-07-13T03:51:28;15.50;99.90
11963;DHT22;62678;52.130;5.584;2023-07-13T03:53:56;15.50;99.90
11963;DHT22;62678;52.130;5.584;2023-07-13T03:56:24;15.40;99.90
11963;DHT22;62678;52.130;5.584;2023-07-13T03:58:53;15.50;99.90
11963;DHT22;62678;52.130;5.584;2023-07-13T04:01:22;15.40;99.90
11963;DHT22;62678;52.130;5.584;2023-07-13T04:03:50;15.40;99.90
11963;DHT22;62678;52.130;5.584;2023-07-13T04:06:19;15.40;99.90
11963;DHT22;62678;52.130;5.584;2023-07-13T04:08:49;15.50;99.90
11963;DHT22;62678;52.130;5.584;2023-07-13T04:11:17;15.50;99.90
11963;DHT22;62678;52.130;5.584;2023-07-13T04:13:46;15.50;99.90
11963;DHT22;62678;52.130;5.584;2023-07-13T04:16:14;15.50;99.90
11963;DHT22;62678;52.130;5.584;2023-07-13T04:18:42;15.50;99.90
11963;DHT22;62678;52.130;5.584;2023-07-13T04:21:09;15.60;99.90
11963;DHT22;62678;52.130;5.584;2023-07-13T04:23:37;15.70;99.90
11963;DHT22;62678;52.130;5.584;2023-07-13T04:26:04;15.70;99.90
11963;DHT22;62678;52.130;5.584;2023-07-13T04:28:32;15.70;99.90
11963;DHT22;62678;52.130;5.584;2023-07-13T04:31:01;15.70;99.90
11963;DHT22;62678;52.130;5.584;2023-07-13T04:33:28;15.70;99.90
11963;DHT22;62678;52.130;5.584;2023-07-13T04:35:56;15.70;99.90
11963;DHT22;62678;52.130;5.584;2023-07-13T04:38:24;15.70;99.90
11963;DHT22;62678;52.130;5.584;2023-07-13T04:40:54;15.80;99.90
11963;DHT22;62678;52.130;5.584;2023-07-13T04:43:22;15.80;99.90
11963;DHT22;62678;52.130;5.584;2023-07-13T04:45:50;15.80;99.90
11963;DHT22;62678;52.130;5.584;2023-07-13T04:48:18;15.90;99.90
11963;DHT22;62678;52.130;5.584;2023-07-13T04:50:46;16.00;99.90
11963;DHT22;62678;52.130;5.584;2023-07-13T04:53:13;16.00;99.90
11963;DHT22;62678;52.130;5.584;2023-07-13T04:55:41;16.10;99.90
11963;DHT22;62678;52.130;5.584;2023-07-13T04:58:08;16.20;99.90
11963;DHT22;62678;52.130;5.584;2023-07-13T05:00:35;16.20;99.90
11963;DHT22;62678;52.130;5.584;2023-07-13T05:03:03;16.30;99.90
11963;DHT22;62678;52.130;5.584;2023-07-13T05:05:32;16.40;99.90
11963;DHT22;62678;52.130;5.584;2023-07-13T05:08:00;16.40;99.90
11963;DHT22;62678;52.130;5.584;2023-07-13T05:10:27;16.50;99.90
11963;DHT22;62678;52.130;5.584;2023-07-13T05:12:55;16.50;99.90
11963;DHT22;62678;52.130;5.584;2023-07-13T05:15:22;16.70;99.90
11963;DHT22;62678;52.130;5.584;2023-07-13T05:17:51;16.70;99.90
11963;DHT22;62678;52.130;5.584;2023-07-13T05:20:19;16.80;99.90
11963;DHT22;62678;52.130;5.584;2023-07-13T05:22:47;16.80;99.90
11963;DHT22;62678;52.130;5.584;2023-07-13T05:25:16;16.80;99.90
11963;DHT22;62678;52.130;5.584;2023-07-13T05:27:43;17.00;99.90
11963;DHT22;62678;52.130;5.584;2023-07-13T05:30:13;17.10;99.90
11963;DHT22;62678;52.130;5.584;2023-07-13T05:32:40;17.20;99.90
11963;DHT22;62678;52.130;5.584;2023-07-13T05:35:08;17.10;99.90
11963;DHT22;62678;52.130;5.584;2023-07-13T05:37:36;17.10;99.90
11963;DHT22;62678;52.130;5.584;2023-07-13T05:40:06;17.30;99.90
11963;DHT22;62678;52.130;5.584;2023-07-13T05:42:34;17.30;99.90
11963;DHT22;62678;52.130;5.584;2023-07-13T05:45:02;17.30;99.90
11963;DHT22;62678;52.130;5.584;2023-07-13T05:47:30;17.40;99.90
11963;DHT22;62678;52.130;5.584;2023-07-13T05:49:57;17.50;99.90
11963;DHT22;62678;52.130;5.584;2023-07-13T05:52:24;17.50;99.90
11963;DHT22;62678;52.130;5.584;2023-07-13T05:54:51;17.60;99.90
11963;DHT22;62678;52.130;5.584;2023-07-13T05:57:20;17.60;99.90
11963;DHT22;62678;52.130;5.584;2023-07-13T05:59:47;17.70;99.90
11963;DHT22;62678;52.130;5.584;2023-07-13T06:02:14;17.80;99.90
11963;DHT22;62678;52.130;5.584;2023-07-13T06:04:41;17.90;99.90
11963;DHT22;62678;52.130;5.584;2023-07-13T06:07:10;17.80;99.90
11963;DHT22;62678;52.130;5.584;2023-07-13T06:09:37;17.70;99.90
11963;DHT22;62678;52.130;5.584;2023-07-13T06:12:05;17.70;99.90
11963;DHT22;62678;52.130;5.584;2023-07-13T06:14:34;17.70;99.90
11963;DHT22;62678;52.130;5.584;2023-07-13T06:17:01;17.90;99.90
11963;DHT22;62678;52.130;5.584;2023-07-13T06:19:29;18.20;99.90
11963;DHT22;62678;52.130;5.584;2023-07-13T06:21:56;18.20;99.90
11963;DHT22;62678;52.130;5.584;2023-07-13T06:24:24;18.30;99.90
11963;DHT22;62678;52.130;5.584;2023-07-13T06:26:51;18.40;99.90
11963;DHT22;62678;52.130;5.584;2023-07-13T06:29:18;18.30;99.90
11963;DHT22;62678;52.130;5.584;2023-07-13T06:31:47;18.20;99.90
11963;DHT22;62678;52.130;5.584;2023-07-13T06:34:14;18.10;99.90
11963;DHT22;62678;52.130;5.584;2023-07-13T06:36:42;18.10;99.90
11963;DHT22;62678;52.130;5.584;2023-07-13T06:39:09;18.20;99.90
11963;DHT22;62678;52.130;5.584;2023-07-13T06:41:36;18.20;99.90
11963;DHT22;62678;52.130;5.584;2023-07-13T06:44:04;18.00;99.90
11963;DHT22;62678;52.130;5.584;2023-07-13T06:46:32;18.20;99.90
11963;DHT22;62678;52.130;5.584;2023-07-13T06:49:01;18.20;99.90
11963;DHT22;62678;52.130;5.584;2023-07-13T06:51:29;18.10;99.90
11963;DHT22;62678;52.130;5.584;2023-07-13T06:53:56;18.30;99.90
11963;DHT22;62678;52.130;5.584;2023-07-13T06:56:23;18.40;99.90
11963;DHT22;62678;52.130;5.584;2023-07-13T06:58:50;18.40;99.90
11963;DHT22;62678;52.130;5.584;2023-07-13T07:01:17;18.50;99.90
11963;DHT22;62678;52.130;5.584;2023-07-13T07:03:44;18.80;99.90
11963;DHT22;62678;52.130;5.584;2023-07-13T07:06:17;18.90;99.90
11963;DHT22;62678;52.130;5.584;2023-07-13T07:08:45;18.90;99.90
11963;DHT22;62678;52.130;5.584;2023-07-13T07:11:14;19.00;99.90
11963;DHT22;62678;52.130;5.584;2023-07-13T07:13:41;19.10;99.90
11963;DHT22;62678;52.130;5.584;2023-07-13T07:16:09;19.30;99.90
11963;DHT22;62678;52.130;5.584;2023-07-13T07:18:36;19.30;99.90
11963;DHT22;62678;52.130;5.584;2023-07-13T07:21:04;19.20;99.90
11963;DHT22;62678;52.130;5.584;2023-07-13T07:23:32;19.30;99.90
11963;DHT22;62678;52.130;5.584;2023-07-13T07:26:00;19.20;99.90
11963;DHT22;62678;52.130;5.584;2023-07-13T07:28:27;19.20;99.90
11963;DHT22;62678;52.130;5.584;2023-07-13T07:30:57;19.10;99.90
11963;DHT22;62678;52.130;5.584;2023-07-13T07:33:25;19.20;99.90
11963;DHT22;62678;52.130;5.584;2023-07-13T07:35:52;19.20;99.90
11963;DHT22;62678;52.130;5.584;2023-07-13T07:38:19;19.30;99.90
11963;DHT22;62678;52.130;5.584;2023-07-13T07:40:48;19.20;99.90
11963;DHT22;62678;52.130;5.584;2023-07-13T07:43:16;19.20;99.90
11963;DHT22;62678;52.130;5.584;2023-07-13T07:45:44;19.10;99.90
11963;DHT22;62678;52.130;5.584;2023-07-13T07:48:12;19.20;99.90
11963;DHT22;62678;52.130;5.584;2023-07-13T07:50:39;19.20;99.90
11963;DHT22;62678;52.130;5.584;2023-07-13T07:53:07;19.20;99.90
11963;DHT22;62678;52.130;5.584;2023-07-13T07:55:36;19.30;99.90
11963;DHT22;62678;52.130;5.584;2023-07-13T07:58:04;19.20;99.90
11963;DHT22;62678;52.130;5.584;2023-07-13T08:00:32;19.30;99.90
11963;DHT22;62678;52.130;5.584;2023-07-13T08:03:01;19.50;99.90
11963;DHT22;62678;52.130;5.584;2023-07-13T08:05:28;19.60;99.90
11963;DHT22;62678;52.130;5.584;2023-07-13T08:07:56;19.80;99.90
11963;DHT22;62678;52.130;5.584;2023-07-13T08:10:23;19.90;99.90
11963;DHT22;62678;52.130;5.584;2023-07-13T08:12:50;20.00;99.90
11963;DHT22;62678;52.130;5.584;2023-07-13T08:15:19;20.00;99.90
11963;DHT22;62678;52.130;5.584;2023-07-13T08:17:47;19.70;99.90
11963;DHT22;62678;52.130;5.584;2023-07-13T08:20:14;19.80;99.90
11963;DHT22;62678;52.130;5.584;2023-07-13T08:22:42;19.80;99.90
11963;DHT22;62678;52.130;5.584;2023-07-13T08:25:09;19.80;99.90
11963;DHT22;62678;52.130;5.584;2023-07-13T08:27:36;19.90;99.90
11963;DHT22;62678;52.130;5.584;2023-07-13T08:30:04;20.10;99.90
11963;DHT22;62678;52.130;5.584;2023-07-13T08:32:33;20.40;99.90
11963;DHT22;62678;52.130;5.584;2023-07-13T08:35:00;20.20;99.90
11963;DHT22;62678;52.130;5.584;2023-07-13T08:37:27;20.10;99.90
11963;DHT22;62678;52.130;5.584;2023-07-13T08:39:54;20.20;99.90
11963;DHT22;62678;52.130;5.584;2023-07-13T08:42:31;20.30;99.90
11963;DHT22;62678;52.130;5.584;2023-07-13T08:45:08;20.60;99.90
11963;DHT22;62678;52.130;5.584;2023-07-13T08:47:45;20.90;99.90
11963;DHT22;62678;52.130;5.584;2023-07-13T08:50:17;20.80;99.90
11963;DHT22;62678;52.130;5.584;2023-07-13T08:52:45;20.70;99.90
11963;DHT22;62678;52.130;5.584;2023-07-13T08:55:16;20.60;99.90
11963;DHT22;62678;52.130;5.584;2023-07-13T08:57:49;20.80;99.90
11963;DHT22;62678;52.130;5.584;2023-07-13T09:00:18;21.00;99.90
11963;DHT22;62678;52.130;5.584;2023-07-13T09:02:52;21.30;99.90
11963;DHT22;62678;52.130;5.584;2023-07-13T09:05:26;21.40;99.90
11963;DHT22;62678;52.130;5.584;2023-07-13T09:08:06;21.50;99.90
11963;DHT22;62678;52.130;5.584;2023-07-13T09:10:41;21.30;99.90
11963;DHT22;62678;52.130;5.584;2023-07-13T09:13:19;20.90;99.90
11963;DHT22;62678;52.130;5.584;2023-07-13T09:15:49;21.00;99.90
11963;DHT22;62678;52.130;5.584;2023-07-13T09:18:23;20.50;99.90
11963;DHT22;62678;52.130;5.584;2023-07-13T09:20:54;20.60;99.90
11963;DHT22;62678;52.130;5.584;2023-07-13T09:23:26;20.50;99.90
11963;DHT22;62678;52.130;5.584;2023-07-13T09:25:59;20.20;99.90
11963;DHT22;62678;52.130;5.584;2023-07-13T09:28:28;20.10;99.90
11963;DHT22;62678;52.130;5.584;2023-07-13T09:31:01;20.30;99.90
11963;DHT22;62678;52.130;5.584;2023-07-13T09:33:31;20.20;99.90
11963;DHT22;62678;52.130;5.584;2023-07-13T09:36:01;20.30;99.90
11963;DHT22;62678;52.130;5.584;2023-07-13T09:38:29;20.40;99.90
11963;DHT22;62678;52.130;5.584;2023-07-13T09:41:08;20.60;99.90
11963;DHT22;62678;52.130;5.584;2023-07-13T09:43:38;20.90;99.90
11963;DHT22;62678;52.130;5.584;2023-07-13T09:46:20;20.80;99.90
11963;DHT22;62678;52.130;5.584;2023-07-13T09:48:50;20.70;99.90
11963;DHT22;62678;52.130;5.584;2023-07-13T09:51:17;20.50;99.90
11963;DHT22;62678;52.130;5.584;2023-07-13T09:53:44;20.60;99.90
11963;DHT22;62678;52.130;5.584;2023-07-13T09:56:21;20.80;99.90
11963;DHT22;62678;52.130;5.584;2023-07-13T09:58:48;21.10;99.90
11963;DHT22;62678;52.130;5.584;2023-07-13T10:01:16;21.30;99.90
11963;DHT22;62678;52.130;5.584;2023-07-13T10:03:58;21.10;99.90
11963;DHT22;62678;52.130;5.584;2023-07-13T10:06:25;21.00;99.90
11963;DHT22;62678;52.130;5.584;2023-07-13T10:08:55;20.60;99.90
11963;DHT22;62678;52.130;5.584;2023-07-13T10:11:26;20.30;99.90
11963;DHT22;62678;52.130;5.584;2023-07-13T10:13:56;20.00;99.90
11963;DHT22;62678;52.130;5.584;2023-07-13T10:16:25;18.80;99.90
11963;DHT22;62678;52.130;5.584;2023-07-13T10:18:55;17.40;99.90
11963;DHT22;62678;52.130;5.584;2023-07-13T10:21:30;16.90;99.90
11963;DHT22;62678;52.130;5.584;2023-07-13T10:24:06;16.80;99.90
11963;DHT22;62678;52.130;5.584;2023-07-13T10:26:41;16.90;99.90
11963;DHT22;62678;52.130;5.584;2023-07-13T10:29:14;17.10;99.90
11963;DHT22;62678;52.130;5.584;2023-07-13T10:31:45;17.50;99.90
11963;DHT22;62678;52.130;5.584;2023-07-13T10:34:13;17.60;99.90
11963;DHT22;62678;52.130;5.584;2023-07-13T10:36:44;18.00;99.90
11963;DHT22;62678;52.130;5.584;2023-07-13T10:39:16;18.40;99.90
11963;DHT22;62678;52.130;5.584;2023-07-13T10:41:49;18.60;99.90
11963;DHT22;62678;52.130;5.584;2023-07-13T10:44:21;18.70;99.90
11963;DHT22;62678;52.130;5.584;2023-07-13T10:46:53;18.90;99.90
11963;DHT22;62678;52.130;5.584;2023-07-13T10:49:21;19.00;99.90
11963;DHT22;62678;52.130;5.584;2023-07-13T10:51:50;19.30;99.90
11963;DHT22;62678;52.130;5.584;2023-07-13T10:54:21;19.50;99.90
11963;DHT22;62678;52.130;5.584;2023-07-13T10:56:53;19.60;99.90
11963;DHT22;62678;52.130;5.584;2023-07-13T10:59:33;19.80;99.90
11963;DHT22;62678;52.130;5.584;2023-07-13T11:02:11;19.60;99.90
11963;DHT22;62678;52.130;5.584;2023-07-13T11:04:41;19.60;99.90
11963;DHT22;62678;52.130;5.584;2023-07-13T11:07:19;19.40;99.90
11963;DHT22;62678;52.130;5.584;2023-07-13T11:09:50;19.20;99.90
11963;DHT22;62678;52.130;5.584;2023-07-13T11:15:12;19.60;99.90
11963;DHT22;62678;52.130;5.584;2023-07-13T11:17:49;19.80;99.90
11963;DHT22;62678;52.130;5.584;2023-07-13T11:20:38;20.10;99.90
11963;DHT22;62678;52.130;5.584;2023-07-13T11:23:27;20.00;99.90
11963;DHT22;62678;52.130;5.584;2023-07-13T11:25:56;20.00;99.90
11963;DHT22;62678;52.130;5.584;2023-07-13T11:28:25;20.20;99.90
11963;DHT22;62678;52.130;5.584;2023-07-13T11:31:13;20.20;99.90
11963;DHT22;62678;52.130;5.584;2023-07-13T11:33:57;20.50;99.90
11963;DHT22;62678;52.130;5.584;2023-07-13T11:36:32;20.80;99.90
11963;DHT22;62678;52.130;5.584;2023-07-13T11:39:10;20.90;99.90
11963;DHT22;62678;52.130;5.584;2023-07-13T11:41:45;20.90;99.90
11963;DHT22;62678;52.130;5.584;2023-07-13T11:44:17;20.80;99.90
11963;DHT22;62678;52.130;5.584;2023-07-13T11:46:46;20.90;99.90
11963;DHT22;62678;52.130;5.584;2023-07-13T11:49:16;21.30;99.90
11963;DHT22;62678;52.130;5.584;2023-07-13T11:51:44;21.30;99.90
11963;DHT22;62678;52.130;5.584;2023-07-13T11:54:23;21.00;99.90
11963;DHT22;62678;52.130;5.584;2023-07-13T11:56:52;20.80;99.90
11963;DHT22;62678;52.130;5.584;2023-07-13T11:59:19;20.20;99.90
11963;DHT22;62678;52.130;5.584;2023-07-13T12:01:50;19.70;99.90
11963;DHT22;62678;52.130;5.584;2023-07-13T12:04:22;19.20;99.90
11963;DHT22;62678;52.130;5.584;2023-07-13T12:06:56;19.10;99.90
11963;DHT22;62678;52.130;5.584;2023-07-13T12:09:26;19.00;99.90
11963;DHT22;62678;52.130;5.584;2023-07-13T12:11:54;18.90;99.90
11963;DHT22;62678;52.130;5.584;2023-07-13T12:14:23;19.00;99.90
11963;DHT22;62678;52.130;5.584;2023-07-13T12:16:52;18.80;99.90
11963;DHT22;62678;52.130;5.584;2023-07-13T12:19:21;18.90;99.90
11963;DHT22;62678;52.130;5.584;2023-07-13T12:21:49;19.00;99.90
11963;DHT22;62678;52.130;5.584;2023-07-13T12:24:18;19.20;99.90
11963;DHT22;62678;52.130;5.584;2023-07-13T12:26:53;19.40;99.90
11963;DHT22;62678;52.130;5.584;2023-07-13T12:29:20;19.50;99.90
11963;DHT22;62678;52.130;5.584;2023-07-13T12:31:49;19.70;99.90
11963;DHT22;62678;52.130;5.584;2023-07-13T12:34:19;20.10;99.90
11963;DHT22;62678;52.130;5.584;2023-07-13T12:36:48;20.30;99.90
11963;DHT22;62678;52.130;5.584;2023-07-13T12:39:18;20.60;99.90
11963;DHT22;62678;52.130;5.584;2023-07-13T12:41:46;20.80;99.90
11963;DHT22;62678;52.130;5.584;2023-07-13T12:44:17;20.60;99.90
11963;DHT22;62678;52.130;5.584;2023-07-13T12:46:57;20.60;99.90
11963;DHT22;62678;52.130;5.584;2023-07-13T12:49:27;20.50;99.90
11963;DHT22;62678;52.130;5.584;2023-07-13T12:52:04;20.20;99.90
11963;DHT22;62678;52.130;5.584;2023-07-13T12:54:32;20.00;99.90
11963;DHT22;62678;52.130;5.584;2023-07-13T12:57:00;20.20;99.90
11963;DHT22;62678;52.130;5.584;2023-07-13T12:59:33;20.30;99.90
11963;DHT22;62678;52.130;5.584;2023-07-13T13:02:02;20.40;99.90
11963;DHT22;62678;52.130;5.584;2023-07-13T13:04:31;20.80;99.90
11963;DHT22;62678;52.130;5.584;2023-07-13T13:07:02;21.10;99.90
11963;DHT22;62678;52.130;5.584;2023-07-13T13:09:29;21.30;99.90
11963;DHT22;62678;52.130;5.584;2023-07-13T13:11:57;21.30;99.90
11963;DHT22;62678;52.130;5.584;2023-07-13T13:14:25;21.30;99.90
11963;DHT22;62678;52.130;5.584;2023-07-13T13:16:53;21.50;99.90
11963;DHT22;62678;52.130;5.584;2023-07-13T13:19:23;21.50;99.90
11963;DHT22;62678;52.130;5.584;2023-07-13T13:21:52;21.50;99.90
11963;DHT22;62678;52.130;5.584;2023-07-13T13:24:23;21.60;99.90
11963;DHT22;62678;52.130;5.584;2023-07-13T13:26:51;22.00;99.90
11963;DHT22;62678;52.130;5.584;2023-07-13T13:29:21;22.10;99.90
11963;DHT22;62678;52.130;5.584;2023-07-13T13:31:50;22.30;99.90
11963;DHT22;62678;52.130;5.584;2023-07-13T13:34:20;21.80;99.90
11963;DHT22;62678;52.130;5.584;2023-07-13T13:36:50;21.90;99.90
11963;DHT22;62678;52.130;5.584;2023-07-13T13:39:23;22.10;99.90
11963;DHT22;62678;52.130;5.584;2023-07-13T13:41:51;22.20;99.90
11963;DHT22;62678;52.130;5.584;2023-07-13T13:44:20;22.30;99.90
11963;DHT22;62678;52.130;5.584;2023-07-13T13:46:49;22.20;99.90
11963;DHT22;62678;52.130;5.584;2023-07-13T13:49:21;22.10;99.90
11963;DHT22;62678;52.130;5.584;2023-07-13T13:51:49;22.10;99.90
11963;DHT22;62678;52.130;5.584;2023-07-13T13:54:18;22.10;99.90
11963;DHT22;62678;52.130;5.584;2023-07-13T13:56:47;21.80;99.90
11963;DHT22;62678;52.130;5.584;2023-07-13T13:59:15;21.60;99.90
11963;DHT22;62678;52.130;5.584;2023-07-13T14:01:46;21.70;99.90
11963;DHT22;62678;52.130;5.584;2023-07-13T14:04:16;21.70;99.90
11963;DHT22;62678;52.130;5.584;2023-07-13T14:06:46;21.70;99.90
11963;DHT22;62678;52.130;5.584;2023-07-13T14:09:15;22.10;99.90
11963;DHT22;62678;52.130;5.584;2023-07-13T14:11:45;22.30;99.90
11963;DHT22;62678;52.130;5.584;2023-07-13T14:14:16;22.20;99.90
11963;DHT22;62678;52.130;5.584;2023-07-13T14:16:44;22.60;99.90
11963;DHT22;62678;52.130;5.584;2023-07-13T14:19:14;22.80;99.90
11963;DHT22;62678;52.130;5.584;2023-07-13T14:21:42;22.70;99.90
11963;DHT22;62678;52.130;5.584;2023-07-13T14:24:10;23.00;99.90
11963;DHT22;62678;52.130;5.584;2023-07-13T14:26:39;22.80;99.90
11963;DHT22;62678;52.130;5.584;2023-07-13T14:29:13;22.90;99.90
11963;DHT22;62678;52.130;5.584;2023-07-13T14:31:41;22.80;99.90
11963;DHT22;62678;52.130;5.584;2023-07-13T14:34:09;22.90;99.90
11963;DHT22;62678;52.130;5.584;2023-07-13T14:36:39;22.80;99.90
11963;DHT22;62678;52.130;5.584;2023-07-13T14:39:12;22.60;99.90
11963;DHT22;62678;52.130;5.584;2023-07-13T14:41:39;22.50;99.90
11963;DHT22;62678;52.130;5.584;2023-07-13T14:44:13;22.50;99.90
11963;DHT22;62678;52.130;5.584;2023-07-13T14:46:41;22.40;99.90
11963;DHT22;62678;52.130;5.584;2023-07-13T14:49:15;22.20;99.90
11963;DHT22;62678;52.130;5.584;2023-07-13T14:51:47;22.50;99.90
11963;DHT22;62678;52.130;5.584;2023-07-13T14:54:16;23.10;99.90
11963;DHT22;62678;52.130;5.584;2023-07-13T14:56:43;24.00;99.90
11963;DHT22;62678;52.130;5.584;2023-07-13T14:59:10;24.80;99.90
11963;DHT22;62678;52.130;5.584;2023-07-13T15:01:39;25.30;99.90
11963;DHT22;62678;52.130;5.584;2023-07-13T15:04:07;25.60;99.90
11963;DHT22;62678;52.130;5.584;2023-07-13T15:06:53;25.40;99.90
11963;DHT22;62678;52.130;5.584;2023-07-13T15:09:22;25.30;99.90
11963;DHT22;62678;52.130;5.584;2023-07-13T15:11:52;25.20;99.90
11963;DHT22;62678;52.130;5.584;2023-07-13T15:14:19;25.00;99.90
11963;DHT22;62678;52.130;5.584;2023-07-13T15:16:48;25.40;99.90
11963;DHT22;62678;52.130;5.584;2023-07-13T15:19:16;26.00;99.90
11963;DHT22;62678;52.130;5.584;2023-07-13T15:21:44;25.60;99.90
11963;DHT22;62678;52.130;5.584;2023-07-13T15:24:11;25.30;99.90
11963;DHT22;62678;52.130;5.584;2023-07-13T15:26:40;25.60;99.90
11963;DHT22;62678;52.130;5.584;2023-07-13T15:29:10;25.70;99.90
11963;DHT22;62678;52.130;5.584;2023-07-13T15:31:38;25.40;99.90
11963;DHT22;62678;52.130;5.584;2023-07-13T15:34:12;25.90;99.90
11963;DHT22;62678;52.130;5.584;2023-07-13T15:36:40;25.20;99.90
11963;DHT22;62678;52.130;5.584;2023-07-13T15:39:13;24.30;99.90
11963;DHT22;62678;52.130;5.584;2023-07-13T15:41:43;24.10;99.90
11963;DHT22;62678;52.130;5.584;2023-07-13T15:44:25;24.40;99.90
11963;DHT22;62678;52.130;5.584;2023-07-13T15:46:53;24.70;99.90